createdAt,value
2023-05-14T00:02:45.598Z,10.98
2023-05-14T00:07:47.637Z,10.30
2023-05-14T00:12:49.228Z,9.80
2023-05-14T00:17:51.252Z,10.85
2023-05-14T00:22:52.970Z,11.25
2023-05-14T00:27:54.585Z,8.73
2023-05-14T00:32:56.259Z,10.75
2023-05-14T00:37:58.460Z,9.57
2023-05-14T00:43:00.269Z,9.00
2023-05-14T00:48:02.006Z,9.60
2023-05-14T00:53:10.050Z,9.98
2023-05-14T00:58:13.429Z,10.30
2023-05-14T01:03:15.146Z,9.75
2023-05-14T01:08:27.802Z,12.05
2023-05-14T01:13:47.072Z,11.13
2023-05-14T01:23:52.544Z,11.70
2023-05-14T01:29:03.023Z,8.95
2023-05-14T01:34:06.845Z,9.32
2023-05-14T01:39:09.703Z,10.82
2023-05-14T01:44:11.936Z,9.70
2023-05-14T01:49:13.731Z,8.88
2023-05-14T01:54:15.422Z,9.80
2023-05-14T01:59:17.603Z,9.13
2023-05-14T02:04:20.780Z,8.82
2023-05-14T02:09:22.758Z,10.57
2023-05-14T02:14:24.386Z,8.45
2023-05-14T02:19:26.233Z,9.82
2023-05-14T02:24:27.979Z,9.48
2023-05-14T02:29:30.371Z,9.60
2023-05-14T02:34:34.318Z,10.85
2023-05-14T02:39:36.460Z,9.02
2023-05-14T02:44:38.352Z,9.38
2023-05-14T02:49:40.364Z,10.38
2023-05-14T02:54:42.034Z,8.15
2023-05-14T02:59:43.753Z,8.48
2023-05-14T03:04:45.700Z,10.70
2023-05-14T03:09:47.417Z,9.57
2023-05-14T03:14:49.101Z,9.80
2023-05-14T03:19:50.794Z,9.45
2023-05-14T03:24:52.417Z,9.43
2023-05-14T03:29:54.214Z,9.43
2023-05-14T03:34:56.240Z,10.10
2023-05-14T03:39:57.849Z,10.38
2023-05-14T03:44:59.431Z,10.50
2023-05-14T03:50:01.146Z,11.25
2023-05-14T03:55:03.553Z,10.80
2023-05-14T04:00:05.818Z,10.55
2023-05-14T04:05:18.229Z,9.88
2023-05-14T04:10:20.525Z,8.98
2023-05-14T04:15:22.565Z,8.43
2023-05-14T04:20:24.405Z,9.50
2023-05-14T04:25:26.181Z,8.50
2023-05-14T04:30:27.809Z,8.85
2023-05-14T04:35:29.547Z,7.88
2023-05-14T04:40:31.825Z,8.20
2023-05-14T04:45:34.518Z,7.15
2023-05-14T04:50:36.153Z,7.72
2023-05-14T04:55:37.748Z,7.28
2023-05-14T05:00:40.840Z,6.60
2023-05-14T05:05:42.508Z,7.93
2023-05-14T05:10:44.257Z,7.00
2023-05-14T05:15:46.105Z,6.90
2023-05-14T05:20:47.994Z,6.65
2023-05-14T05:25:50.509Z,7.03
2023-05-14T05:30:52.157Z,6.40
2023-05-14T05:35:53.857Z,7.18
2023-05-14T05:40:55.516Z,6.32
2023-05-14T05:45:57.087Z,6.20
2023-05-14T05:50:58.824Z,6.32
2023-05-14T05:56:00.429Z,6.03
2023-05-14T06:01:02.422Z,5.82
2023-05-14T06:06:04.360Z,5.57
2023-05-14T06:11:06.104Z,5.20
2023-05-14T06:16:07.902Z,5.35
2023-05-14T06:21:09.543Z,5.20
2023-05-14T06:26:11.221Z,5.47
2023-05-14T06:31:13.711Z,5.90
2023-05-14T06:36:15.505Z,5.30
2023-05-14T06:41:17.213Z,5.90
2023-05-14T06:46:18.824Z,5.75
2023-05-14T06:51:20.569Z,5.45
2023-05-14T06:56:22.496Z,6.18
2023-05-14T07:01:24.263Z,6.32
2023-05-14T07:06:26.213Z,5.95
2023-05-14T07:11:28.020Z,6.55
2023-05-14T07:16:29.988Z,5.55
2023-05-14T07:21:32.704Z,6.45
2023-05-14T07:26:34.906Z,5.63
2023-05-14T07:31:36.915Z,5.60
2023-05-14T07:36:39.477Z,4.90
2023-05-14T07:41:43.681Z,5.15
2023-05-14T07:46:45.892Z,5.93
2023-05-14T07:51:47.703Z,6.00
2023-05-14T07:56:49.618Z,5.72
2023-05-14T08:01:51.646Z,6.55
2023-05-14T08:06:53.398Z,5.70
2023-05-14T08:11:55.031Z,5.78
2023-05-14T08:16:56.708Z,5.85
2023-05-14T08:21:58.678Z,6.00
2023-05-14T08:27:00.608Z,6.15
2023-05-14T08:32:08.729Z,5.63
2023-05-14T08:37:21.339Z,6.13
2023-05-14T08:42:25.668Z,5.57
2023-05-14T08:47:30.383Z,6.00
2023-05-14T08:52:32.948Z,6.20
2023-05-14T08:57:35.612Z,6.80
2023-05-14T09:02:39.764Z,7.15
2023-05-14T09:07:41.695Z,7.82
2023-05-14T09:12:43.501Z,7.13
2023-05-14T09:17:48.039Z,6.72
2023-05-14T09:22:53.688Z,7.00
2023-05-14T09:27:58.640Z,6.95
2023-05-14T09:33:01.639Z,7.22
2023-05-14T09:38:03.453Z,7.63
2023-05-14T09:43:07.354Z,6.70
2023-05-14T09:48:09.135Z,7.40
2023-05-14T09:53:11.772Z,8.10
2023-05-14T09:58:16.370Z,7.00
2023-05-14T10:03:20.500Z,7.38
2023-05-14T10:08:26.872Z,6.53
2023-05-14T10:13:33.080Z,6.78
2023-05-14T10:18:43.785Z,6.85
2023-05-14T10:23:47.084Z,6.53
2023-05-14T10:28:48.855Z,7.40
2023-05-14T10:33:51.244Z,7.88
2023-05-14T10:38:57.860Z,7.68
2023-05-14T10:43:59.735Z,6.85
2023-05-14T10:49:01.851Z,7.38
2023-05-14T10:54:03.641Z,8.40
2023-05-14T10:59:06.853Z,8.32
2023-05-14T11:04:17.907Z,6.80
2023-05-14T11:09:21.390Z,7.28
2023-05-14T11:14:23.345Z,7.65
2023-05-14T11:19:25.151Z,7.32
2023-05-14T11:24:26.786Z,8.00
2023-05-14T11:29:28.480Z,7.20
2023-05-14T11:34:30.148Z,7.57
2023-05-14T11:39:33.091Z,7.63
2023-05-14T11:44:34.974Z,8.38
2023-05-14T11:49:37.959Z,7.55
2023-05-14T11:54:41.001Z,7.72
2023-05-14T11:59:43.032Z,7.40
2023-05-14T12:04:49.497Z,6.97
2023-05-14T12:09:57.357Z,7.28
2023-05-14T12:14:59.928Z,7.20
2023-05-14T12:20:01.698Z,6.57
2023-05-14T12:25:04.040Z,6.47
2023-05-14T12:30:20.033Z,7.82
2023-05-14T12:35:23.584Z,7.35
2023-05-14T12:40:25.995Z,7.43
2023-05-14T12:45:28.189Z,7.00
2023-05-14T12:50:29.884Z,6.32
2023-05-14T12:55:31.876Z,6.90
2023-05-14T13:00:33.559Z,6.70
2023-05-14T13:05:35.942Z,6.25
2023-05-14T13:10:38.103Z,5.70
2023-05-14T13:15:39.734Z,6.47
2023-05-14T13:20:43.250Z,6.90
2023-05-14T13:25:45.782Z,8.05
2023-05-14T13:31:08.236Z,5.90
2023-05-14T13:36:12.092Z,6.90
2023-05-14T13:41:13.979Z,7.25
2023-05-14T13:46:15.753Z,5.93
2023-05-14T13:51:17.728Z,6.78
2023-05-14T13:56:19.791Z,6.43
2023-05-14T14:01:21.925Z,7.03
2023-05-14T14:06:25.687Z,6.93
2023-05-14T14:11:27.650Z,7.68
2023-05-14T14:16:29.531Z,9.13
2023-05-14T14:21:31.839Z,8.65
2023-05-14T14:26:33.789Z,9.30
2023-05-14T14:31:36.509Z,8.40
2023-05-14T14:36:38.226Z,8.07
2023-05-14T14:41:40.079Z,8.10
2023-05-14T14:46:42.970Z,9.13
2023-05-14T14:51:44.908Z,8.35
2023-05-14T14:56:49.223Z,8.10
2023-05-14T15:01:51.137Z,7.95
2023-05-14T15:06:52.769Z,8.55
2023-05-14T15:11:54.561Z,7.75
2023-05-14T15:16:56.239Z,8.60
2023-05-14T15:21:58.586Z,8.30
2023-05-14T15:27:00.417Z,8.98
2023-05-14T15:32:02.521Z,8.55
2023-05-14T15:37:04.415Z,11.93
2023-05-14T15:42:06.554Z,13.82
2023-05-14T15:47:08.225Z,11.65
2023-05-14T15:52:10.035Z,14.80
2023-05-14T15:57:14.569Z,9.13
2023-05-14T16:02:16.308Z,8.98
2023-05-14T16:07:17.972Z,11.23
2023-05-14T16:12:19.679Z,9.38
2023-05-14T16:17:21.315Z,9.70
2023-05-14T16:22:22.958Z,11.65
2023-05-14T16:27:24.986Z,10.02
2023-05-14T16:32:27.720Z,8.73
2023-05-14T16:37:29.610Z,14.93
2023-05-14T16:42:31.294Z,8.77
2023-05-14T16:47:33.010Z,7.90
2023-05-14T16:52:34.802Z,7.53
2023-05-14T16:57:36.740Z,7.93
2023-05-14T17:02:39.248Z,7.63
2023-05-14T17:07:41.355Z,5.93
2023-05-14T17:12:43.472Z,7.10
2023-05-14T17:17:52.675Z,6.18
2023-05-14T17:22:54.511Z,7.72
2023-05-14T17:27:56.344Z,7.30
2023-05-14T17:32:58.603Z,8.00
2023-05-14T17:38:04.962Z,7.00
2023-05-14T17:48:35.051Z,7.38
2023-05-14T17:53:37.143Z,7.88
2023-05-14T17:58:41.617Z,7.70
2023-05-14T18:03:43.601Z,8.30
2023-05-14T18:08:45.350Z,8.18
2023-05-14T18:13:49.125Z,9.00
2023-05-14T18:18:51.918Z,7.85
2023-05-14T18:24:07.508Z,13.23
2023-05-14T18:29:09.243Z,10.80
2023-05-14T18:34:11.816Z,8.75
2023-05-14T18:39:14.740Z,8.50
2023-05-14T18:44:16.646Z,8.00
2023-05-14T18:49:18.409Z,7.93
2023-05-14T18:54:20.182Z,6.93
2023-05-14T18:59:21.845Z,7.60
2023-05-14T19:04:25.295Z,7.18
2023-05-14T19:09:27.069Z,7.50
2023-05-14T19:14:29.623Z,8.73
2023-05-14T19:19:31.581Z,5.50
2023-05-14T19:24:37.421Z,5.53
2023-05-14T19:29:41.359Z,7.90
2023-05-14T19:34:49.540Z,9.30
2023-05-14T19:40:22.216Z,9.00
2023-05-14T19:45:24.278Z,7.88
2023-05-14T19:50:26.388Z,7.68
2023-05-14T19:55:28.278Z,8.27
2023-05-14T20:00:30.003Z,7.03
2023-05-14T20:05:34.244Z,7.30
2023-05-14T20:10:35.912Z,8.07
2023-05-14T20:15:37.793Z,7.78
2023-05-14T20:20:39.995Z,7.72
2023-05-14T20:25:43.023Z,8.90
2023-05-14T20:30:44.720Z,8.63
2023-05-14T20:35:46.419Z,9.27
2023-05-14T20:40:48.348Z,8.60
2023-05-14T20:45:50.030Z,8.93
2023-05-14T20:50:51.678Z,6.22
2023-05-14T20:55:53.313Z,5.75
2023-05-14T21:00:54.973Z,5.93
2023-05-14T21:05:56.865Z,5.63
2023-05-14T21:10:59.067Z,5.53
2023-05-14T21:16:01.348Z,5.57
2023-05-14T21:21:03.319Z,6.15
2023-05-14T21:26:05.022Z,7.93
2023-05-14T21:31:06.662Z,7.43
2023-05-14T21:36:09.321Z,7.05
2023-05-14T21:41:11.006Z,8.80
2023-05-14T21:46:12.747Z,6.82
2023-05-14T21:51:14.566Z,6.60
2023-05-14T21:56:16.828Z,8.85
2023-05-14T22:01:18.590Z,6.90
2023-05-14T22:06:20.983Z,6.20
2023-05-14T22:11:22.666Z,7.40
2023-05-14T22:16:26.364Z,7.25
2023-05-14T22:21:28.762Z,7.55
2023-05-14T22:26:30.748Z,6.60
2023-05-14T22:31:32.982Z,6.22
2023-05-14T22:36:36.385Z,7.93
2023-05-14T22:41:38.163Z,6.20
2023-05-14T22:46:39.859Z,6.20
2023-05-14T22:51:42.384Z,4.35
2023-05-14T22:56:44.076Z,3.72
2023-05-14T23:01:45.884Z,3.95
2023-05-14T23:06:48.347Z,3.40
2023-05-14T23:11:50.358Z,3.70
2023-05-14T23:16:52.260Z,3.13
2023-05-14T23:21:53.942Z,3.25
2023-05-14T23:26:55.895Z,3.83
2023-05-14T23:31:57.603Z,2.88
2023-05-14T23:36:59.301Z,3.20
2023-05-14T23:42:01.103Z,3.53
2023-05-14T23:47:03.251Z,3.65
2023-05-14T23:52:05.293Z,3.42
2023-05-14T23:57:07.151Z,3.38
